Time;durP1;ratioP1;P1;durP2;ratioP2;P2;SDS_P1;SDS_P2;PMS_P1;PMS_P2;Temp;Humidity;BMP_temperature;BMP_pressure;BME280_temperature;BME280_humidity;BME280_pressure;Samples;Min_cycle;Max_cycle;Signal;HPM_P1;HPM_P2
2023/02/27 00:00:45;;;;;;;3.43;0.93;;;;;-0.40;102175.00;;;;9911843;29;20238;-80
2023/02/27 00:05:47;;;;;;;1.50;1.10;;;;;-0.40;102175.00;;;;9896413;29;20231;-80
2023/02/27 00:10:49;;;;;;;5.13;1.33;;;;;-0.50;102191.00;;;;9881357;30;20242;-80
2023/02/27 00:15:52;;;;;;;4.77;1.50;;;;;-0.50;102182.00;;;;9873384;30;20597;-79
2023/02/27 00:20:54;;;;;;;2.13;1.10;;;;;-0.50;102188.00;;;;9859017;30;20234;-79
2023/02/27 00:25:56;;;;;;;3.80;1.33;;;;;-0.60;102175.00;;;;9873607;30;20626;-79
2023/02/27 00:30:58;;;;;;;3.40;1.00;;;;;-0.60;102170.00;;;;9858837;30;20760;-80
2023/02/27 00:36:02;;;;;;;3.50;0.97;;;;;-0.60;102180.00;;;;9873443;30;20253;-81
2023/02/27 00:41:04;;;;;;;5.77;1.20;;;;;-0.60;102182.00;;;;9858593;30;20208;-81
2023/02/27 00:46:06;;;;;;;6.10;1.27;;;;;-0.60;102180.00;;;;9869870;30;20269;-79
2023/02/27 00:51:08;;;;;;;2.30;1.20;;;;;-0.60;102187.00;;;;9836741;30;20205;-80
2023/02/27 00:56:10;;;;;;;3.43;1.13;;;;;-0.70;102191.00;;;;9883540;29;20245;-79
2023/02/27 01:01:14;;;;;;;4.37;1.20;;;;;-0.70;102186.00;;;;9836777;30;20204;-79
2023/02/27 01:06:16;;;;;;;9.20;1.87;;;;;-0.80;102182.00;;;;9836702;30;20211;-79
2023/02/27 01:11:18;;;;;;;4.47;1.37;;;;;-0.90;102191.00;;;;9869516;30;20263;-79
2023/02/27 01:16:20;;;;;;;5.67;1.03;;;;;-0.90;102183.00;;;;9873542;30;20249;-80
2023/02/27 01:21:22;;;;;;;2.23;1.17;;;;;-0.90;102182.00;;;;9873343;30;20302;-80
2023/02/27 01:26:25;;;;;;;5.33;0.90;;;;;-1.00;102179.00;;;;9880949;29;20219;-80
2023/02/27 01:31:27;;;;;;;1.80;1.13;;;;;-1.10;102181.00;;;;9895139;29;20230;-80
2023/02/27 01:36:30;;;;;;;2.10;1.30;;;;;-1.20;102183.00;;;;9895489;29;20223;-80
2023/02/27 01:41:32;;;;;;;3.90;1.53;;;;;-1.30;102174.00;;;;9897742;29;20199;-80
2023/02/27 01:46:36;;;;;;;1.97;0.93;;;;;-1.50;102174.00;;;;9916904;29;20207;-80
2023/02/27 01:51:43;;;;;;;6.50;1.23;;;;;-1.60;102173.00;;;;9931159;29;20191;-79
2023/02/27 01:56:46;;;;;;;6.97;1.17;;;;;-1.70;102177.00;;;;9927067;29;20220;-79
2023/02/27 02:01:49;;;;;;;1.73;1.40;;;;;-1.70;102177.00;;;;9909568;30;20200;-78
2023/02/27 02:07:08;;;;;;;2.83;1.13;;;;;-1.80;102181.00;;;;9892981;30;20223;-79
2023/02/27 02:12:14;;;;;;;5.73;1.27;;;;;-1.80;102187.00;;;;9908147;30;20203;-78
2023/02/27 02:17:30;;;;;;;1.80;1.30;;;;;-1.80;102185.00;;;;9907707;30;20199;-78
2023/02/27 02:22:35;;;;;;;2.73;0.90;;;;;-1.80;102178.00;;;;9863297;30;20741;-78
2023/02/27 02:28:01;;;;;;;5.30;1.13;;;;;-1.90;102185.00;;;;9877776;29;20223;-78
2023/02/27 02:33:25;;;;;;;8.17;1.40;;;;;-2.00;102188.00;;;;9907316;30;20203;-78
2023/02/27 02:38:55;;;;;;;1.40;1.17;;;;;-2.10;102191.00;;;;9892354;30;20188;-78
2023/02/27 02:44:27;;;;;;;1.67;1.00;;;;;-2.20;102185.00;;;;9892038;30;20204;-78
2023/02/27 02:49:56;;;;;;;7.40;1.43;;;;;-2.20;102186.00;;;;9876844;30;20223;-79
2023/02/27 02:55:11;;;;;;;5.50;1.57;;;;;-2.30;102187.00;;;;9939436;29;20209;-79
2023/02/27 03:00:50;;;;;;;1.67;1.17;;;;;-2.30;102184.00;;;;9898309;29;20206;-79
2023/02/27 03:06:11;;;;;;;2.83;1.20;;;;;-2.30;102189.00;;;;9890160;29;20203;-79
2023/02/27 03:11:14;;;;;;;4.00;1.93;;;;;-2.30;102190.00;;;;9913012;29;20265;-78
2023/02/27 03:16:27;;;;;;;2.97;1.37;;;;;-2.20;102200.00;;;;9922357;29;20203;-79
2023/02/27 03:21:42;;;;;;;3.93;1.17;;;;;-2.20;102192.00;;;;9860648;30;20203;-79
2023/02/27 03:26:48;;;;;;;4.03;1.47;;;;;-2.10;102202.00;;;;9884987;29;20234;-80
2023/02/27 03:31:59;;;;;;;3.53;1.40;;;;;-2.20;102212.00;;;;9912210;29;20724;-79
2023/02/27 03:37:04;;;;;;;2.00;1.40;;;;;-2.20;102201.00;;;;9911762;29;20203;-80
2023/02/27 03:42:18;;;;;;;2.10;1.27;;;;;-2.20;102213.00;;;;9911520;29;20794;-79
2023/02/27 03:47:56;;;;;;;1.93;0.90;;;;;-2.20;102209.00;;;;9900465;29;20234;-79
2023/02/27 03:52:59;;;;;;;3.00;1.30;;;;;-2.30;102212.00;;;;9878143;29;20213;-79
2023/02/27 03:58:02;;;;;;;3.57;1.60;;;;;-2.30;102223.00;;;;9874300;29;20215;-79
2023/02/27 04:03:04;;;;;;;8.27;0.97;;;;;-2.20;102225.00;;;;9873059;29;20302;-79
2023/02/27 04:08:21;;;;;;;3.63;1.80;;;;;-2.20;102222.00;;;;9849683;29;20608;-79
2023/02/27 04:13:49;;;;;;;3.73;1.80;;;;;-2.20;102240.00;;;;9807674;30;20233;-80
2023/02/27 04:19:15;;;;;;;1.90;1.27;;;;;-2.30;102238.00;;;;9832396;30;20198;-80
2023/02/27 04:24:29;;;;;;;3.37;1.80;;;;;-2.30;102246.00;;;;9873696;30;20295;-79
2023/02/27 04:29:42;;;;;;;7.50;1.97;;;;;-2.20;102249.00;;;;9872249;30;20329;-79
2023/02/27 04:34:55;;;;;;;2.20;1.40;;;;;-2.30;102246.00;;;;9896959;30;20207;-80
2023/02/27 04:40:14;;;;;;;8.47;1.80;;;;;-2.40;102242.00;;;;9821756;30;20212;-80
2023/02/27 04:45:21;;;;;;;2.40;1.37;;;;;-2.50;102248.00;;;;9852652;30;20251;-79
2023/02/27 04:50:28;;;;;;;3.87;1.40;;;;;-2.60;102249.00;;;;9847330;30;20277;-79
2023/02/27 04:55:35;;;;;;;3.93;1.50;;;;;-2.70;102251.00;;;;9851358;30;20196;-80
2023/02/27 05:00:40;;;;;;;2.07;1.33;;;;;-2.80;102244.00;;;;9886858;30;20199;-80
2023/02/27 05:05:44;;;;;;;1.87;1.47;;;;;-2.90;102257.00;;;;9871908;30;20208;-80
2023/02/27 05:11:12;;;;;;;5.70;1.73;;;;;-3.00;102253.00;;;;9900611;29;20237;-80
2023/02/27 05:16:23;;;;;;;2.87;1.40;;;;;-3.10;102259.00;;;;9912889;29;20194;-79
2023/02/27 05:21:32;;;;;;;4.17;1.67;;;;;-3.10;102259.00;;;;9901614;29;20199;-80
2023/02/27 05:27:04;;;;;;;6.27;1.83;;;;;-3.10;102262.00;;;;9926039;29;20218;-80
2023/02/27 05:32:27;;;;;;;2.87;1.60;;;;;-3.10;102267.00;;;;9901525;29;20206;-80
2023/02/27 05:38:03;;;;;;;6.40;1.67;;;;;-3.10;102256.00;;;;9931852;29;20226;-79
2023/02/27 05:43:11;;;;;;;5.17;1.77;;;;;-3.10;102263.00;;;;9901253;29;20260;-79
2023/02/27 05:48:21;;;;;;;10.63;1.87;;;;;-3.10;102261.00;;;;9887719;29;20708;-79
2023/02/27 05:53:29;;;;;;;4.63;1.80;;;;;-3.20;102266.00;;;;9911845;29;20654;-80
2023/02/27 05:58:37;;;;;;;2.97;1.60;;;;;-3.20;102276.00;;;;9929122;29;20195;-79
2023/02/27 06:03:40;;;;;;;1.93;1.20;;;;;-3.20;102276.00;;;;9900613;29;20663;-81
2023/02/27 06:08:43;;;;;;;3.07;2.10;;;;;-3.20;102275.00;;;;9887420;29;20235;-79
2023/02/27 06:13:45;;;;;;;2.23;1.60;;;;;-3.10;102282.00;;;;9878712;30;20854;-80
2023/02/27 06:18:47;;;;;;;11.70;1.90;;;;;-3.10;102286.00;;;;9877761;30;20196;-80
2023/02/27 06:23:49;;;;;;;6.83;1.73;;;;;-3.00;102302.00;;;;9863568;30;20204;-79
2023/02/27 06:28:51;;;;;;;3.60;1.63;;;;;-2.90;102304.00;;;;9847904;30;20221;-80
2023/02/27 06:33:54;;;;;;;3.93;2.33;;;;;-2.90;102295.00;;;;9855985;30;20193;-80
2023/02/27 06:38:56;;;;;;;2.17;1.73;;;;;-2.80;102312.00;;;;9840687;30;20189;-80
2023/02/27 06:43:58;;;;;;;8.60;2.53;;;;;-2.80;102315.00;;;;9855792;30;20334;-80
2023/02/27 06:49:01;;;;;;;4.17;2.47;;;;;-2.70;102331.00;;;;9906523;30;20208;-79
2023/02/27 06:54:03;;;;;;;6.20;2.23;;;;;-2.60;102336.00;;;;9892776;29;20199;-80
2023/02/27 06:59:05;;;;;;;5.97;2.47;;;;;-2.50;102346.00;;;;9871318;30;20200;-80
2023/02/27 07:04:10;;;;;;;9.20;3.70;;;;;-2.50;102342.00;;;;9861965;30;20200;-79
2023/02/27 07:09:12;;;;;;;9.00;2.70;;;;;-2.30;102347.00;;;;9852472;29;20232;-80
2023/02/27 07:14:15;;;;;;;9.33;2.37;;;;;-2.20;102353.00;;;;9869231;30;20200;-80
2023/02/27 07:19:17;;;;;;;6.73;3.10;;;;;-1.90;102347.00;;;;9853142;30;20211;-79
2023/02/27 07:24:19;;;;;;;4.43;2.87;;;;;-1.70;102363.00;;;;9838787;30;20262;-80
2023/02/27 07:29:21;;;;;;;11.83;3.30;;;;;-1.40;102365.00;;;;9823232;30;20224;-79
2023/02/27 07:34:23;;;;;;;7.00;2.63;;;;;-1.10;102371.00;;;;9838488;30;20688;-79
2023/02/27 07:39:25;;;;;;;5.90;3.07;;;;;-0.90;102384.00;;;;9838047;30;20286;-80
2023/02/27 07:44:27;;;;;;;4.57;3.37;;;;;-0.70;102383.00;;;;9857311;30;20249;-79
2023/02/27 07:49:29;;;;;;;5.90;3.33;;;;;-0.40;102385.00;;;;9871946;30;20223;-80
2023/02/27 07:54:31;;;;;;;3.47;2.70;;;;;-0.20;102378.00;;;;9871081;29;20207;-81
2023/02/27 07:59:36;;;;;;;8.53;3.57;;;;;0.10;102387.00;;;;9855655;30;20621;-79
2023/02/27 08:04:38;;;;;;;5.90;3.63;;;;;0.30;102388.00;;;;9858925;30;20725;-80
2023/02/27 08:09:40;;;;;;;5.83;3.40;;;;;0.60;102389.00;;;;9872845;29;20246;-80
2023/02/27 08:14:42;;;;;;;9.73;3.57;;;;;0.80;102392.00;;;;9858734;30;20204;-80
2023/02/27 08:19:44;;;;;;;10.10;3.53;;;;;1.10;102388.00;;;;9873036;30;20210;-81
2023/02/27 08:24:46;;;;;;;6.03;3.43;;;;;1.40;102399.00;;;;9858908;30;20254;-80
2023/02/27 08:29:48;;;;;;;5.63;3.47;;;;;1.70;102395.00;;;;9887181;30;20224;-79
2023/02/27 08:34:50;;;;;;;7.13;3.47;;;;;2.10;102399.00;;;;9878590;30;20258;-80
2023/02/27 08:39:53;;;;;;;7.27;4.00;;;;;2.70;102390.00;;;;9861325;30;20595;-80
2023/02/27 08:44:55;;;;;;;5.97;3.67;;;;;3.20;102387.00;;;;9873219;30;20290;-79
2023/02/27 08:49:57;;;;;;;6.77;3.23;;;;;3.70;102394.00;;;;9871819;30;20236;-80
2023/02/27 08:54:59;;;;;;;5.73;3.40;;;;;4.10;102402.00;;;;9875635;30;20278;-79
2023/02/27 09:00:04;;;;;;;6.90;3.33;;;;;4.50;102402.00;;;;9838511;30;20204;-79
2023/02/27 09:05:07;;;;;;;4.87;3.20;;;;;4.70;102403.00;;;;9820683;30;20212;-80
2023/02/27 09:10:09;;;;;;;9.97;3.73;;;;;5.10;102397.00;;;;9873376;30;20234;-79
2023/02/27 09:15:11;;;;;;;8.80;3.63;;;;;5.50;102411.00;;;;9901715;30;20254;-79
2023/02/27 09:20:14;;;;;;;4.53;3.53;;;;;5.80;102409.00;;;;9887124;29;20241;-79
2023/02/27 09:25:16;;;;;;;8.30;3.17;;;;;6.00;102402.00;;;;9875645;29;20207;-79
2023/02/27 09:30:19;;;;;;;8.83;3.20;;;;;6.40;102410.00;;;;9885458;30;20330;-79
2023/02/27 09:35:21;;;;;;;7.20;3.03;;;;;6.70;102417.00;;;;9886347;30;20318;-79
2023/02/27 09:40:26;;;;;;;4.63;2.70;;;;;6.80;102410.00;;;;9900994;30;20202;-80
2023/02/27 09:45:30;;;;;;;6.23;3.30;;;;;7.10;102413.00;;;;9887519;30;20200;-77
2023/02/27 09:50:38;;;;;;;5.73;2.70;;;;;7.40;102405.00;;;;9914389;29;20755;-77
2023/02/27 09:55:43;;;;;;;4.67;1.70;;;;;7.70;102412.00;;;;9872412;29;20224;-77
2023/02/27 10:00:54;;;;;;;4.90;2.53;;;;;7.70;102419.00;;;;9870500;29;20211;-80
2023/02/27 10:06:15;;;;;;;2.17;1.70;;;;;7.60;102409.00;;;;9891848;30;20207;-78
2023/02/27 10:11:37;;;;;;;4.07;1.80;;;;;7.80;102416.00;;;;9877495;30;20231;-77
2023/02/27 10:16:40;;;;;;;3.43;2.30;;;;;8.10;102413.00;;;;9877492;30;20204;-76
2023/02/27 10:21:45;;;;;;;4.00;1.90;;;;;8.20;102408.00;;;;9877851;29;20199;-77
2023/02/27 10:26:51;;;;;;;3.53;1.80;;;;;8.40;102405.00;;;;9887960;29;20199;-77
2023/02/27 10:32:17;;;;;;;5.60;1.70;;;;;8.40;102413.00;;;;9899029;29;20199;-77
2023/02/27 10:37:22;;;;;;;3.40;1.93;;;;;8.60;102410.00;;;;9889566;29;20208;-77
2023/02/27 10:42:29;;;;;;;2.87;1.80;;;;;8.90;102405.00;;;;9891221;30;20204;-77
2023/02/27 10:47:31;;;;;;;4.07;1.80;;;;;9.10;102415.00;;;;9876278;30;20706;-77
2023/02/27 10:52:47;;;;;;;3.50;1.70;;;;;9.20;102416.00;;;;9905762;29;20199;-77
2023/02/27 10:57:49;;;;;;;3.80;1.63;;;;;9.00;102413.00;;;;9914270;29;20214;-77
2023/02/27 11:02:51;;;;;;;6.33;1.83;;;;;9.60;102407.00;;;;9876426;30;20879;-77
2023/02/27 11:08:08;;;;;;;4.40;1.83;;;;;10.10;102411.00;;;;9868188;29;20248;-77
2023/02/27 11:13:24;;;;;;;3.07;1.97;;;;;10.30;102399.00;;;;9824399;30;20202;-77
2023/02/27 11:18:28;;;;;;;3.00;2.47;;;;;10.40;102391.00;;;;9868456;30;20200;-77
2023/02/27 11:23:32;;;;;;;6.33;2.10;;;;;10.40;102383.00;;;;9824145;30;20216;-78
2023/02/27 11:28:34;;;;;;;2.70;1.73;;;;;10.10;102375.00;;;;9876557;30;20696;-78
2023/02/27 11:33:52;;;;;;;1.60;1.37;;;;;10.00;102372.00;;;;9867401;30;20323;-77
2023/02/27 11:38:55;;;;;;;4.90;2.17;;;;;10.40;102367.00;;;;9823961;30;20287;-77
2023/02/27 11:43:59;;;;;;;1.70;1.40;;;;;10.20;102361.00;;;;9837439;30;20207;-77
2023/02/27 11:49:33;;;;;;;1.97;1.40;;;;;9.90;102360.00;;;;9823052;30;20232;-77
2023/02/27 11:54:44;;;;;;;5.27;1.43;;;;;10.20;102357.00;;;;9876836;29;20203;-77
2023/02/27 12:00:15;;;;;;;2.40;1.47;;;;;10.40;102351.00;;;;9837906;30;20592;-77
2023/02/27 12:05:23;;;;;;;5.20;1.37;;;;;10.70;102343.00;;;;9837283;30;20197;-77
2023/02/27 12:10:34;;;;;;;1.83;1.30;;;;;10.80;102349.00;;;;9836866;30;20238;-77
2023/02/27 12:15:38;;;;;;;2.17;1.27;;;;;10.50;102340.00;;;;9837368;30;20209;-77
2023/02/27 12:20:50;;;;;;;2.83;1.30;;;;;10.30;102333.00;;;;9822074;30;20615;-77
2023/02/27 12:26:00;;;;;;;1.90;1.20;;;;;10.20;102330.00;;;;9807615;30;20224;-77
2023/02/27 12:31:06;;;;;;;2.10;1.20;;;;;10.60;102326.00;;;;9836425;30;20239;-77
2023/02/27 12:36:11;;;;;;;2.17;1.30;;;;;10.80;102328.00;;;;9822224;30;20215;-78
2023/02/27 12:41:29;;;;;;;3.93;1.03;;;;;10.50;102320.00;;;;9865220;30;20458;-77
2023/02/27 12:47:09;;;;;;;3.20;1.40;;;;;10.60;102317.00;;;;9821488;30;20211;-78
2023/02/27 12:52:31;;;;;;;3.40;1.10;;;;;10.30;102310.00;;;;9757946;30;20201;-78
2023/02/27 12:57:45;;;;;;;2.90;1.50;;;;;10.40;102304.00;;;;9854222;30;20208;-78
2023/02/27 13:03:23;;;;;;;2.77;1.30;;;;;10.70;102310.00;;;;9850130;30;20215;-78
2023/02/27 13:08:47;;;;;;;1.97;1.20;;;;;10.40;102308.00;;;;9820275;30;20236;-77
2023/02/27 13:13:55;;;;;;;2.50;1.47;;;;;10.40;102303.00;;;;9863178;30;20211;-77
2023/02/27 13:19:15;;;;;;;4.93;1.00;;;;;10.90;102301.00;;;;9871858;30;20631;-77
2023/02/27 13:24:26;;;;;;;3.30;1.10;;;;;11.40;102299.00;;;;9886775;30;20231;-77
2023/02/27 13:29:36;;;;;;;1.20;1.10;;;;;10.10;102301.00;;;;9872820;30;20220;-77
2023/02/27 13:34:46;;;;;;;1.80;1.13;;;;;8.80;102299.00;;;;9872964;30;20200;-77
2023/02/27 13:39:52;;;;;;;2.20;1.20;;;;;8.50;102303.00;;;;9842320;30;20246;-77
2023/02/27 13:45:00;;;;;;;2.40;1.20;;;;;8.20;102292.00;;;;9841986;30;20223;-77
2023/02/27 13:50:24;;;;;;;3.27;1.53;;;;;7.70;102303.00;;;;9844464;30;20766;-77
2023/02/27 13:55:35;;;;;;;3.90;1.50;;;;;8.80;102295.00;;;;9907333;29;20262;-77
2023/02/27 14:00:38;;;;;;;4.60;1.67;;;;;10.20;102293.00;;;;9832825;30;20197;-77
2023/02/27 14:05:43;;;;;;;3.20;1.17;;;;;10.70;102287.00;;;;9869630;30;20204;-77
2023/02/27 14:11:18;;;;;;;2.47;1.23;;;;;12.30;102271.00;;;;9891977;30;20618;-78
2023/02/27 14:16:43;;;;;;;5.30;1.50;;;;;11.60;102276.00;;;;9865743;30;20293;-76
2023/02/27 14:22:09;;;;;;;1.57;1.30;;;;;9.70;102282.00;;;;9825358;30;20708;-76
2023/02/27 14:27:26;;;;;;;2.07;0.90;;;;;9.30;102278.00;;;;9873415;30;20736;-79
2023/02/27 14:32:34;;;;;;;3.17;1.23;;;;;9.20;102285.00;;;;9839320;30;20319;-79
2023/02/27 14:37:37;;;;;;;3.67;1.30;;;;;8.90;102265.00;;;;9904633;30;20199;-78
2023/02/27 14:43:09;;;;;;;3.50;1.30;;;;;12.60;102215.00;;;;9875497;30;20648;-79
2023/02/27 14:48:18;;;;;;;3.63;1.37;;;;;13.30;102262.00;;;;9889344;29;20306;-77
2023/02/27 14:53:25;;;;;;;4.83;1.13;;;;;11.40;102230.00;;;;9885565;29;20231;-76
2023/02/27 14:58:27;;;;;;;2.27;1.13;;;;;13.10;102255.00;;;;9847047;30;20335;-77
2023/02/27 15:03:46;;;;;;;2.47;1.10;;;;;14.10;102236.00;;;;9890220;30;20668;-79
2023/02/27 15:08:50;;;;;;;3.50;1.23;;;;;11.70;102285.00;;;;9889810;29;20711;-77
2023/02/27 15:13:59;;;;;;;6.23;1.30;;;;;9.90;102273.00;;;;9874694;30;20230;-77
2023/02/27 15:19:11;;;;;;;3.00;1.20;;;;;8.20;102275.00;;;;9836947;30;20239;-77
2023/02/27 15:24:22;;;;;;;3.43;1.10;;;;;10.50;102267.00;;;;9823210;30;20208;-79
2023/02/27 15:29:33;;;;;;;4.23;1.60;;;;;12.00;102209.00;;;;9838444;30;20281;-80
2023/02/27 15:34:35;;;;;;;2.40;1.50;;;;;12.60;102236.00;;;;9822950;30;20283;-79
2023/02/27 15:39:37;;;;;;;2.90;1.20;;;;;10.20;102270.00;;;;9837609;30;20264;-79
2023/02/27 15:44:43;;;;;;;1.40;1.30;;;;;8.30;102275.00;;;;9852233;30;20201;-80
2023/02/27 15:49:46;;;;;;;4.07;1.43;;;;;7.50;102277.00;;;;9829535;30;20219;-78
2023/02/27 15:55:11;;;;;;;4.50;1.60;;;;;7.10;102265.00;;;;9873034;29;20217;-78
2023/02/27 16:00:16;;;;;;;2.57;1.20;;;;;6.80;102270.00;;;;9849711;30;20212;-78
2023/02/27 16:05:33;;;;;;;2.23;1.63;;;;;6.70;102262.00;;;;9866531;30;20249;-79
2023/02/27 16:10:45;;;;;;;1.33;1.20;;;;;6.30;102271.00;;;;9821807;30;20289;-79
2023/02/27 16:15:59;;;;;;;4.10;1.97;;;;;6.10;102261.00;;;;9851079;30;20256;-78
2023/02/27 16:21:10;;;;;;;5.13;2.03;;;;;5.90;102265.00;;;;9850526;30;20253;-78
2023/02/27 16:26:15;;;;;;;3.67;1.70;;;;;5.60;102268.00;;;;9844131;30;20216;-79
2023/02/27 16:31:28;;;;;;;2.50;2.00;;;;;5.30;102272.00;;;;9871986;30;20213;-79
2023/02/27 16:36:31;;;;;;;3.67;2.00;;;;;5.10;102276.00;;;;9838310;30;20311;-79
2023/02/27 16:41:34;;;;;;;2.17;1.50;;;;;5.00;102277.00;;;;9846786;30;20296;-78
2023/02/27 16:46:36;;;;;;;4.20;1.70;;;;;4.80;102281.00;;;;9835072;30;20216;-78
2023/02/27 16:51:38;;;;;;;2.37;1.30;;;;;4.70;102286.00;;;;9856442;30;20303;-78
2023/02/27 16:56:40;;;;;;;3.73;2.03;;;;;4.60;102287.00;;;;9871890;29;20604;-79
2023/02/27 17:01:42;;;;;;;3.20;2.10;;;;;4.40;102297.00;;;;9858242;30;20200;-78
2023/02/27 17:06:44;;;;;;;4.37;2.10;;;;;4.30;102301.00;;;;9872580;29;20203;-79
2023/02/27 17:11:46;;;;;;;5.00;2.03;;;;;4.20;102308.00;;;;9859993;29;20258;-79
2023/02/27 17:16:48;;;;;;;3.93;2.40;;;;;4.00;102313.00;;;;9894688;30;20678;-79
2023/02/27 17:21:50;;;;;;;3.37;1.80;;;;;3.90;102319.00;;;;9879361;30;20184;-78
2023/02/27 17:26:52;;;;;;;5.50;2.60;;;;;3.90;102309.00;;;;9893997;30;20668;-78
2023/02/27 17:31:54;;;;;;;3.07;2.23;;;;;3.90;102307.00;;;;9880149;30;20208;-78
2023/02/27 17:36:56;;;;;;;4.07;2.40;;;;;3.80;102311.00;;;;9878303;30;20195;-79
2023/02/27 17:41:58;;;;;;;5.77;2.57;;;;;3.60;102313.00;;;;9813382;30;20731;-79
2023/02/27 17:47:00;;;;;;;4.43;2.80;;;;;3.50;102314.00;;;;9827379;30;20962;-78
2023/02/27 17:52:02;;;;;;;5.83;2.60;;;;;3.30;102322.00;;;;9872312;29;20254;-78
2023/02/27 17:57:05;;;;;;;4.17;2.27;;;;;3.10;102317.00;;;;9888010;29;20672;-78
2023/02/27 18:02:16;;;;;;;5.10;2.53;;;;;3.00;102320.00;;;;9878594;30;20192;-78
2023/02/27 18:07:18;;;;;;;12.77;2.80;;;;;3.00;102329.00;;;;9855961;30;20311;-78
2023/02/27 18:12:21;;;;;;;4.87;2.67;;;;;3.10;102337.00;;;;9826508;30;20627;-78
2023/02/27 18:17:23;;;;;;;5.77;2.80;;;;;3.10;102343.00;;;;9855219;30;20235;-79
2023/02/27 18:22:25;;;;;;;4.93;3.10;;;;;3.10;102356.00;;;;9839476;30;20302;-78
2023/02/27 18:27:27;;;;;;;5.20;3.93;;;;;3.00;102351.00;;;;9855548;30;20205;-78
2023/02/27 18:32:29;;;;;;;3.70;2.90;;;;;2.90;102353.00;;;;9835916;30;20216;-78
2023/02/27 18:37:31;;;;;;;4.07;2.63;;;;;2.90;102353.00;;;;9863588;30;20201;-79
2023/02/27 18:42:33;;;;;;;4.53;2.73;;;;;3.00;102362.00;;;;9869255;30;20220;-78
2023/02/27 18:47:35;;;;;;;5.47;2.83;;;;;2.90;102352.00;;;;9868689;30;20200;-79
2023/02/27 18:52:37;;;;;;;6.20;2.80;;;;;2.80;102361.00;;;;9839113;30;20221;-78
2023/02/27 18:57:40;;;;;;;7.67;2.97;;;;;2.70;102350.00;;;;9854873;30;20223;-78
2023/02/27 19:02:42;;;;;;;8.67;3.07;;;;;2.50;102356.00;;;;9875390;30;20276;-78
2023/02/27 19:07:45;;;;;;;3.53;2.53;;;;;2.40;102357.00;;;;9890472;29;20233;-79
2023/02/27 19:12:49;;;;;;;4.97;2.80;;;;;2.30;102358.00;;;;9863047;30;20219;-79
2023/02/27 19:17:51;;;;;;;6.23;3.00;;;;;2.20;102353.00;;;;9853385;30;20613;-78
2023/02/27 19:22:53;;;;;;;6.47;4.67;;;;;2.10;102357.00;;;;9853339;30;20653;-79
2023/02/27 19:27:55;;;;;;;3.33;2.70;;;;;2.00;102353.00;;;;9856089;30;20719;-78
2023/02/27 19:32:57;;;;;;;5.83;3.70;;;;;1.90;102353.00;;;;9889580;29;20208;-78
2023/02/27 19:37:59;;;;;;;5.37;4.00;;;;;1.90;102362.00;;;;9860243;30;20203;-78
2023/02/27 19:43:01;;;;;;;5.93;3.33;;;;;1.80;102364.00;;;;9859465;30;20291;-78
2023/02/27 19:48:03;;;;;;;6.67;3.13;;;;;1.80;102360.00;;;;9874272;30;20203;-78
2023/02/27 19:53:06;;;;;;;4.47;3.83;;;;;1.70;102359.00;;;;9873879;29;20678;-78
2023/02/27 19:58:08;;;;;;;5.27;2.83;;;;;1.70;102362.00;;;;9885840;29;20661;-78
2023/02/27 20:03:09;;;;;;;7.13;3.00;;;;;1.60;102364.00;;;;9837104;30;20193;-79
2023/02/27 20:08:11;;;;;;;5.30;3.20;;;;;1.40;102368.00;;;;9836499;29;20240;-78
2023/02/27 20:13:13;;;;;;;6.10;3.20;;;;;1.30;102363.00;;;;9833771;30;20238;-78
2023/02/27 20:18:15;;;;;;;6.67;3.80;;;;;1.20;102369.00;;;;9823475;30;20205;-79
2023/02/27 20:23:17;;;;;;;6.50;3.47;;;;;1.10;102369.00;;;;9807152;30;20746;-78
2023/02/27 20:28:19;;;;;;;5.43;3.67;;;;;1.10;102370.00;;;;9842335;30;20668;-78
2023/02/27 20:33:21;;;;;;;4.77;3.90;;;;;1.10;102367.00;;;;9839366;30;20204;-78
2023/02/27 20:38:23;;;;;;;4.10;3.30;;;;;1.00;102370.00;;;;9820729;30;20215;-79
2023/02/27 20:43:27;;;;;;;4.27;3.37;;;;;0.80;102368.00;;;;9850216;30;20235;-78
2023/02/27 20:48:28;;;;;;;9.13;4.07;;;;;0.70;102374.00;;;;9834620;30;20271;-78
2023/02/27 20:53:33;;;;;;;6.30;4.30;;;;;0.60;102374.00;;;;9885109;30;20266;-78
2023/02/27 20:58:36;;;;;;;9.00;4.97;;;;;0.60;102377.00;;;;9885434;30;20660;-78
2023/02/27 21:03:39;;;;;;;6.23;4.17;;;;;0.50;102372.00;;;;9886475;30;20668;-79
2023/02/27 21:08:44;;;;;;;8.93;4.13;;;;;0.40;102377.00;;;;9886772;29;20219;-78
2023/02/27 21:13:46;;;;;;;8.07;4.43;;;;;0.20;102373.00;;;;9856923;30;20290;-78
2023/02/27 21:18:50;;;;;;;7.57;5.47;;;;;0.10;102374.00;;;;9851874;30;20720;-79
2023/02/27 21:23:53;;;;;;;7.90;5.83;;;;;-0.10;102376.00;;;;9849731;30;20200;-78
2023/02/27 21:29:00;;;;;;;7.80;5.00;;;;;-0.20;102376.00;;;;9858065;30;20238;-79
2023/02/27 21:34:05;;;;;;;5.83;4.57;;;;;-0.30;102376.00;;;;9834625;30;20200;-78
2023/02/27 21:39:10;;;;;;;11.20;4.57;;;;;-0.30;102384.00;;;;9848928;30;20262;-78
2023/02/27 21:44:16;;;;;;;7.93;4.73;;;;;-0.30;102375.00;;;;9819352;30;20207;-79
2023/02/27 21:49:21;;;;;;;9.97;5.20;;;;;-0.30;102372.00;;;;9833978;30;20260;-78
2023/02/27 21:54:23;;;;;;;6.80;4.77;;;;;-0.30;102367.00;;;;9884780;29;20203;-78
2023/02/27 21:59:25;;;;;;;9.13;4.87;;;;;-0.40;102365.00;;;;9864990;30;20306;-78
2023/02/27 22:04:27;;;;;;;11.53;5.60;;;;;-0.40;102364.00;;;;9877633;30;20203;-78
2023/02/27 22:09:29;;;;;;;8.43;4.57;;;;;-0.50;102355.00;;;;9877473;29;20231;-79
2023/02/27 22:14:30;;;;;;;7.97;4.80;;;;;-0.60;102362.00;;;;9848108;30;20577;-78
2023/02/27 22:19:32;;;;;;;8.00;4.73;;;;;-0.60;102360.00;;;;9840703;30;20201;-78
2023/02/27 22:24:34;;;;;;;8.37;4.37;;;;;-0.70;102368.00;;;;9825626;30;20660;-79
2023/02/27 22:29:37;;;;;;;8.43;5.13;;;;;-0.70;102367.00;;;;9871622;30;20618;-78
2023/02/27 22:34:39;;;;;;;8.57;4.57;;;;;-0.80;102368.00;;;;9862143;30;20206;-78
2023/02/27 22:39:41;;;;;;;9.83;4.60;;;;;-0.70;102373.00;;;;9876810;30;20465;-78
2023/02/27 22:44:43;;;;;;;7.80;4.30;;;;;-0.60;102370.00;;;;9845445;30;20214;-79
2023/02/27 22:49:45;;;;;;;7.80;3.97;;;;;-0.60;102389.00;;;;9846503;30;20212;-78
2023/02/27 22:54:48;;;;;;;8.50;4.53;;;;;-0.60;102385.00;;;;9909699;29;20597;-79
2023/02/27 22:59:50;;;;;;;11.03;4.67;;;;;-0.60;102377.00;;;;9875407;30;20199;-79
2023/02/27 23:04:52;;;;;;;6.77;4.53;;;;;-0.70;102383.00;;;;9887711;30;20192;-78
2023/02/27 23:09:54;;;;;;;7.57;3.80;;;;;-0.70;102388.00;;;;9838331;30;20335;-78
2023/02/27 23:14:56;;;;;;;5.37;4.07;;;;;-0.80;102396.00;;;;9838966;30;20724;-78
2023/02/27 23:19:58;;;;;;;5.80;4.63;;;;;-0.90;102400.00;;;;9824214;30;20188;-78
2023/02/27 23:25:05;;;;;;;5.03;4.00;;;;;-1.00;102401.00;;;;9838580;30;20299;-78
2023/02/27 23:30:12;;;;;;;7.87;4.73;;;;;-1.00;102405.00;;;;9893121;29;20243;-78
2023/02/27 23:35:16;;;;;;;5.07;3.87;;;;;-1.00;102409.00;;;;9867641;30;20204;-78
2023/02/27 23:40:19;;;;;;;5.60;3.80;;;;;-1.00;102416.00;;;;9851879;30;20201;-78
2023/02/27 23:45:21;;;;;;;6.93;4.17;;;;;-1.00;102403.00;;;;9866795;30;20201;-78
2023/02/27 23:50:35;;;;;;;7.83;4.10;;;;;-0.90;102404.00;;;;9866668;30;20272;-78
2023/02/27 23:55:37;;;;;;;7.37;4.00;;;;;-0.90;102414.00;;;;9867634;30;20211;-78
